createdAt,value
2022-11-29T00:01:56.369Z,24.13
2022-11-29T00:04:43.136Z,24.77
2022-11-29T00:07:30.775Z,29.15
2022-11-29T00:10:17.118Z,25.17
2022-11-29T00:13:03.364Z,24.42
2022-11-29T00:15:49.511Z,24.50
2022-11-29T00:18:35.817Z,26.83
2022-11-29T00:21:22.198Z,25.00
2022-11-29T00:24:10.191Z,23.20
2022-11-29T00:26:56.143Z,24.35
2022-11-29T00:29:42.269Z,22.55
2022-11-29T00:32:28.509Z,23.45
2022-11-29T00:35:14.981Z,24.25
2022-11-29T00:38:01.176Z,23.10
2022-11-29T00:40:53.128Z,26.27
2022-11-29T00:43:40.435Z,22.35
2022-11-29T00:46:26.893Z,20.42
2022-11-29T00:49:13.319Z,25.88
2022-11-29T00:52:00.648Z,19.80
2022-11-29T00:54:46.797Z,24.88
2022-11-29T00:57:34.563Z,21.48
2022-11-29T01:00:21.499Z,20.95
2022-11-29T01:03:08.027Z,23.27
2022-11-29T01:05:54.526Z,21.65
2022-11-29T01:08:41.063Z,26.60
2022-11-29T01:11:28.405Z,24.52
2022-11-29T01:14:16.315Z,27.65
2022-11-29T01:17:02.734Z,24.77
2022-11-29T01:19:50.991Z,25.60
2022-11-29T01:22:37.628Z,24.98
2022-11-29T01:25:24.082Z,26.45
2022-11-29T01:28:10.177Z,25.40
2022-11-29T01:30:57.925Z,25.75
2022-11-29T01:33:44.236Z,23.50
2022-11-29T01:36:30.936Z,21.63
2022-11-29T01:39:17.231Z,23.23
2022-11-29T01:42:03.249Z,24.38
2022-11-29T01:45:19.968Z,24.77
2022-11-29T01:48:07.660Z,25.58
2022-11-29T01:50:55.450Z,27.10
2022-11-29T01:53:41.556Z,26.70
2022-11-29T01:56:29.608Z,23.13
2022-11-29T01:59:20.295Z,25.98
2022-11-29T02:02:13.419Z,25.60
2022-11-29T02:05:03.480Z,28.73
2022-11-29T02:07:53.886Z,26.08
2022-11-29T02:11:00.519Z,25.65
2022-11-29T02:13:56.032Z,30.67
2022-11-29T02:16:56.402Z,26.58
2022-11-29T02:20:25.517Z,26.27
2022-11-29T02:23:29.125Z,24.45
2022-11-29T02:26:34.209Z,26.70
2022-11-29T02:29:38.634Z,27.45
2022-11-29T02:33:01.793Z,26.83
2022-11-29T02:36:26.772Z,26.05
2022-11-29T02:39:36.059Z,25.63
2022-11-29T02:42:55.740Z,24.35
2022-11-29T02:45:59.678Z,23.00
2022-11-29T02:52:55.781Z,22.15
2022-11-29T02:55:48.345Z,25.15
2022-11-29T02:58:42.869Z,26.83
2022-11-29T03:01:37.356Z,26.92
2022-11-29T03:04:32.962Z,23.55
2022-11-29T03:07:26.163Z,23.98
2022-11-29T03:10:25.863Z,29.08
2022-11-29T03:13:20.642Z,32.85
2022-11-29T03:16:15.009Z,29.42
2022-11-29T03:19:12.270Z,28.67
2022-11-29T03:22:09.237Z,31.60
2022-11-29T03:25:03.096Z,28.45
2022-11-29T03:27:58.301Z,31.95
2022-11-29T03:30:50.245Z,29.77
2022-11-29T03:33:43.115Z,26.50
2022-11-29T03:36:40.749Z,29.17
2022-11-29T03:39:34.217Z,29.55
2022-11-29T03:42:26.013Z,25.77
2022-11-29T03:45:21.416Z,21.52
2022-11-29T03:48:11.372Z,25.70
2022-11-29T03:51:02.717Z,22.13
2022-11-29T03:53:54.435Z,19.20
2022-11-29T03:56:41.962Z,19.92
2022-11-29T03:59:48.017Z,20.52
2022-11-29T04:03:02.904Z,20.38
2022-11-29T04:06:04.947Z,18.27
2022-11-29T04:09:31.913Z,16.02
2022-11-29T04:12:46.338Z,18.25
2022-11-29T04:15:56.826Z,21.67
2022-11-29T04:19:10.475Z,16.77
2022-11-29T04:22:38.239Z,22.50
2022-11-29T04:25:49.870Z,22.52
2022-11-29T04:29:05.746Z,23.15
2022-11-29T04:32:15.768Z,27.50
2022-11-29T04:35:19.591Z,23.10
2022-11-29T04:38:38.395Z,30.00
2022-11-29T04:41:53.739Z,31.67
2022-11-29T04:45:07.535Z,30.67
2022-11-29T04:48:03.830Z,29.58
2022-11-29T04:51:00.364Z,27.90
2022-11-29T04:53:54.774Z,29.67
2022-11-29T04:56:45.632Z,27.48
2022-11-29T04:59:40.580Z,28.35
2022-11-29T05:02:34.476Z,27.30
2022-11-29T05:05:30.652Z,28.63
2022-11-29T05:08:28.927Z,26.85
2022-11-29T05:11:26.306Z,26.60
2022-11-29T05:14:27.203Z,30.08
2022-11-29T05:17:31.667Z,31.55
2022-11-29T05:20:32.498Z,31.20
2022-11-29T05:23:30.207Z,30.60
2022-11-29T05:26:23.495Z,31.58
2022-11-29T05:29:13.952Z,29.35
2022-11-29T05:32:13.716Z,27.50
2022-11-29T05:35:24.826Z,30.60
2022-11-29T05:38:29.718Z,26.95
2022-11-29T05:41:33.765Z,27.02
2022-11-29T05:44:28.804Z,26.20
2022-11-29T05:47:24.667Z,28.05
2022-11-29T05:50:22.610Z,28.27
2022-11-29T05:53:21.985Z,27.30
2022-11-29T05:56:16.240Z,23.38
2022-11-29T05:59:08.687Z,30.42
2022-11-29T06:02:05.856Z,28.80
2022-11-29T06:05:06.448Z,26.85
2022-11-29T06:07:58.700Z,25.75
2022-11-29T06:10:56.907Z,29.73
2022-11-29T06:14:05.507Z,24.80
2022-11-29T06:17:18.268Z,30.70
2022-11-29T06:20:26.306Z,26.48
2022-11-29T06:23:33.108Z,29.42
2022-11-29T06:26:34.229Z,23.88
2022-11-29T06:29:29.024Z,24.20
2022-11-29T06:32:26.207Z,26.25
2022-11-29T06:35:29.650Z,24.75
2022-11-29T06:38:22.391Z,24.02
2022-11-29T06:41:14.052Z,27.33
2022-11-29T06:44:00.945Z,25.17
2022-11-29T06:46:52.951Z,24.65
2022-11-29T06:49:45.397Z,23.60
2022-11-29T06:52:43.370Z,23.27
2022-11-29T06:55:40.610Z,23.13
2022-11-29T06:58:42.954Z,23.33
2022-11-29T07:01:37.117Z,25.50
2022-11-29T07:04:45.616Z,25.35
2022-11-29T07:07:35.093Z,23.10
2022-11-29T07:10:22.507Z,21.50
2022-11-29T07:13:08.982Z,19.63
2022-11-29T07:16:04.200Z,24.40
2022-11-29T07:18:58.195Z,25.42
2022-11-29T07:21:58.102Z,25.73
2022-11-29T07:24:57.903Z,26.38
2022-11-29T07:27:54.422Z,25.60
2022-11-29T07:30:47.810Z,27.50
2022-11-29T07:33:45.270Z,29.10
2022-11-29T07:36:40.345Z,26.10
2022-11-29T07:39:40.621Z,24.25
2022-11-29T07:42:32.574Z,26.13
2022-11-29T07:45:25.243Z,23.33
2022-11-29T07:48:13.382Z,25.52
2022-11-29T07:50:59.665Z,22.73
2022-11-29T07:53:46.257Z,21.40
2022-11-29T07:56:33.747Z,23.55
2022-11-29T07:59:20.389Z,23.02
2022-11-29T08:02:11.601Z,23.70
2022-11-29T08:04:58.862Z,22.80
2022-11-29T08:07:44.938Z,23.45
2022-11-29T08:10:32.275Z,27.20
2022-11-29T08:13:21.526Z,26.90
2022-11-29T08:16:08.591Z,26.63
2022-11-29T08:18:55.152Z,25.48
2022-11-29T08:21:44.214Z,26.58
2022-11-29T08:24:30.577Z,25.08
2022-11-29T08:27:16.595Z,23.20
2022-11-29T08:30:04.910Z,24.10
2022-11-29T08:32:52.150Z,26.10
2022-11-29T08:35:39.812Z,27.40
2022-11-29T08:38:26.134Z,26.85
2022-11-29T08:41:15.664Z,26.92
2022-11-29T08:44:01.792Z,26.05
2022-11-29T08:47:06.838Z,27.27
2022-11-29T08:50:07.016Z,26.55
2022-11-29T08:53:10.417Z,24.25
2022-11-29T08:56:01.071Z,23.67
2022-11-29T08:58:47.908Z,26.05
2022-11-29T09:01:33.973Z,24.65
2022-11-29T09:04:21.837Z,24.13
2022-11-29T09:07:07.899Z,22.90
2022-11-29T09:09:53.852Z,26.63
2022-11-29T09:12:41.579Z,23.50
2022-11-29T09:15:27.710Z,24.27
2022-11-29T09:18:14.409Z,23.08
2022-11-29T09:21:01.710Z,24.85
2022-11-29T09:23:47.809Z,27.17
2022-11-29T09:26:36.766Z,26.88
2022-11-29T09:29:23.068Z,26.17
2022-11-29T09:32:09.224Z,26.63
2022-11-29T09:34:55.678Z,28.15
2022-11-29T09:37:44.311Z,28.95
2022-11-29T09:40:34.868Z,29.67
2022-11-29T09:43:27.570Z,29.33
2022-11-29T09:46:25.812Z,27.13
2022-11-29T09:49:40.842Z,27.92
2022-11-29T09:52:37.704Z,26.45
2022-11-29T09:55:39.491Z,30.30
2022-11-29T09:58:30.178Z,28.85
2022-11-29T10:01:23.045Z,26.85
2022-11-29T10:04:13.662Z,30.05
2022-11-29T10:07:05.687Z,30.85
2022-11-29T10:09:57.936Z,28.15
2022-11-29T10:12:49.548Z,26.52
2022-11-29T10:15:42.091Z,27.35
2022-11-29T10:18:34.626Z,28.15
2022-11-29T10:21:24.981Z,26.35
2022-11-29T10:24:17.755Z,24.55
2022-11-29T10:27:14.896Z,28.05
2022-11-29T10:30:02.708Z,22.15
2022-11-29T10:32:55.648Z,24.55
2022-11-29T10:35:42.184Z,22.25
2022-11-29T10:38:31.112Z,24.40
2022-11-29T10:41:22.482Z,24.10
2022-11-29T10:44:14.490Z,24.17
2022-11-29T10:47:10.420Z,24.35
2022-11-29T10:49:57.666Z,23.33
2022-11-29T10:52:43.903Z,24.10
2022-11-29T10:55:36.037Z,23.80
2022-11-29T10:58:28.386Z,21.85
2022-11-29T11:01:17.684Z,22.05
2022-11-29T11:04:09.888Z,21.00
2022-11-29T11:06:57.666Z,21.20
2022-11-29T11:09:49.525Z,19.35
2022-11-29T11:12:36.803Z,23.40
2022-11-29T11:15:29.085Z,22.13
2022-11-29T11:18:21.993Z,20.80
2022-11-29T11:21:12.977Z,25.20
2022-11-29T11:24:02.661Z,24.85
2022-11-29T11:26:49.220Z,23.23
2022-11-29T11:29:38.671Z,24.52
2022-11-29T11:32:24.960Z,30.00
2022-11-29T11:35:24.559Z,29.30
2022-11-29T11:38:18.430Z,29.92
2022-11-29T11:41:16.327Z,27.95
2022-11-29T11:44:07.070Z,29.23
2022-11-29T11:47:02.232Z,31.13
2022-11-29T11:49:50.486Z,30.90
2022-11-29T11:52:44.853Z,31.48
2022-11-29T11:55:40.793Z,33.42
2022-11-29T11:58:29.623Z,34.92
2022-11-29T12:01:18.218Z,36.30
2022-11-29T12:04:07.332Z,43.88
2022-11-29T12:06:57.822Z,44.22
2022-11-29T12:09:48.964Z,43.65
2022-11-29T12:12:41.102Z,44.78
2022-11-29T12:15:31.643Z,49.97
2022-11-29T12:18:25.654Z,46.30
2022-11-29T12:21:16.446Z,50.95
2022-11-29T12:24:09.996Z,46.75
2022-11-29T12:27:01.563Z,44.17
2022-11-29T12:29:49.393Z,45.55
2022-11-29T12:32:50.204Z,45.25
2022-11-29T12:35:49.907Z,51.35
2022-11-29T12:38:47.968Z,50.05
2022-11-29T12:41:48.343Z,49.33
2022-11-29T12:44:49.268Z,50.40
2022-11-29T12:47:52.085Z,49.40
2022-11-29T12:50:49.821Z,50.42
2022-11-29T12:53:49.947Z,52.60
2022-11-29T12:56:42.234Z,53.28
2022-11-29T13:00:38.425Z,51.95
2022-11-29T13:03:34.790Z,54.55
2022-11-29T13:06:28.514Z,51.03
2022-11-29T13:09:38.709Z,49.67
2022-11-29T13:12:33.008Z,51.15
2022-11-29T13:15:21.521Z,55.80
2022-11-29T13:18:19.914Z,56.67
2022-11-29T13:21:14.216Z,52.53
2022-11-29T13:24:08.826Z,54.70
2022-11-29T13:26:57.271Z,55.47
2022-11-29T13:29:43.514Z,52.33
2022-11-29T13:32:35.613Z,54.75
2022-11-29T13:35:26.414Z,52.83
2022-11-29T13:38:23.682Z,55.10
2022-11-29T13:41:21.128Z,53.83
2022-11-29T13:43:56.114Z,49.72
2022-11-29T13:46:29.338Z,52.90
2022-11-29T13:48:57.218Z,52.05
2022-11-29T13:51:32.362Z,50.42
2022-11-29T13:54:04.165Z,49.03
2022-11-29T13:56:42.789Z,47.40
2022-11-29T13:59:19.282Z,43.28
2022-11-29T14:01:50.232Z,44.20
2022-11-29T14:04:35.550Z,43.72
2022-11-29T14:07:11.304Z,39.63
2022-11-29T14:10:00.050Z,38.33
2022-11-29T14:12:36.703Z,36.80
2022-11-29T14:15:18.507Z,37.30
2022-11-29T14:17:52.674Z,34.77
2022-11-29T14:20:57.377Z,35.72
2022-11-29T14:23:34.181Z,34.17
2022-11-29T14:26:33.494Z,33.17
2022-11-29T14:29:01.539Z,31.15
2022-11-29T14:31:49.557Z,32.75
2022-11-29T14:34:27.412Z,33.42
2022-11-29T14:37:00.253Z,36.95
2022-11-29T14:39:34.960Z,32.20
2022-11-29T14:42:14.345Z,32.95
2022-11-29T14:44:49.072Z,32.00
2022-11-29T14:47:24.071Z,28.17
2022-11-29T14:49:53.952Z,30.60
2022-11-29T14:52:27.571Z,27.55
2022-11-29T14:55:01.627Z,29.02
2022-11-29T14:58:05.737Z,29.83
2022-11-29T15:00:43.113Z,24.58
2022-11-29T15:03:14.667Z,24.55
2022-11-29T15:05:44.984Z,26.88
2022-11-29T15:08:18.852Z,23.75
2022-11-29T15:10:51.950Z,25.55
2022-11-29T15:13:27.081Z,26.70
2022-11-29T15:16:13.801Z,25.35
2022-11-29T15:19:13.167Z,26.63
2022-11-29T15:21:48.915Z,25.33
2022-11-29T15:24:19.119Z,22.08
2022-11-29T15:26:58.251Z,23.02
2022-11-29T15:29:28.890Z,26.48
2022-11-29T15:31:58.931Z,24.25
2022-11-29T15:34:32.554Z,27.50
2022-11-29T15:37:00.777Z,27.10
2022-11-29T15:39:31.651Z,25.00
2022-11-29T15:42:04.879Z,25.23
2022-11-29T15:44:34.129Z,25.85
2022-11-29T15:47:23.627Z,26.85
2022-11-29T15:49:51.492Z,27.65
2022-11-29T15:52:25.489Z,24.23
2022-11-29T15:54:57.629Z,23.77
2022-11-29T15:57:28.884Z,25.40
2022-11-29T16:00:01.952Z,28.17
2022-11-29T16:02:35.508Z,26.90
2022-11-29T16:05:10.631Z,23.50
2022-11-29T16:07:40.829Z,26.65
2022-11-29T16:10:15.428Z,24.58
2022-11-29T16:12:53.859Z,22.33
2022-11-29T16:15:29.541Z,25.40
2022-11-29T16:17:57.378Z,24.55
2022-11-29T16:20:26.727Z,25.17
2022-11-29T16:23:05.599Z,24.10
2022-11-29T16:25:37.542Z,23.70
2022-11-29T16:28:06.170Z,27.30
2022-11-29T16:30:35.403Z,26.67
2022-11-29T16:33:03.882Z,26.60
2022-11-29T16:35:33.729Z,27.83
2022-11-29T16:38:05.038Z,27.67
2022-11-29T16:40:35.532Z,25.85
2022-11-29T16:43:09.503Z,28.17
2022-11-29T16:45:40.988Z,30.67
2022-11-29T16:48:31.461Z,29.63
2022-11-29T16:51:18.160Z,32.33
2022-11-29T16:53:47.719Z,31.15
2022-11-29T16:56:17.287Z,32.97
2022-11-29T16:59:25.303Z,32.42
2022-11-29T17:01:37.411Z,35.20
2022-11-29T17:04:05.472Z,30.27
2022-11-29T17:06:33.101Z,34.25
2022-11-29T17:09:00.779Z,32.03
2022-11-29T17:11:28.475Z,32.40
2022-11-29T17:13:56.075Z,34.80
2022-11-29T17:16:25.549Z,35.75
2022-11-29T17:18:54.612Z,35.00
2022-11-29T17:21:24.075Z,37.28
2022-11-29T17:23:52.243Z,35.35
2022-11-29T17:26:20.638Z,38.80
2022-11-29T17:28:50.206Z,35.83
2022-11-29T17:31:20.284Z,35.63
2022-11-29T17:33:48.131Z,36.00
2022-11-29T17:36:21.105Z,37.33
2022-11-29T17:38:49.354Z,37.20
2022-11-29T17:41:20.749Z,35.28
2022-11-29T17:43:49.011Z,40.63
2022-11-29T17:46:18.619Z,35.13
2022-11-29T17:48:46.481Z,32.70
2022-11-29T17:51:43.910Z,38.00
2022-11-29T17:54:04.902Z,39.33
2022-11-29T17:56:32.576Z,36.63
2022-11-29T17:59:02.446Z,33.03
2022-11-29T18:01:32.793Z,37.00
2022-11-29T18:04:02.256Z,38.53
2022-11-29T18:06:31.901Z,36.20
2022-11-29T18:09:01.335Z,38.65
2022-11-29T18:11:36.516Z,38.92
2022-11-29T18:14:12.105Z,37.50
2022-11-29T18:16:40.206Z,36.80
2022-11-29T18:19:09.992Z,35.67
2022-11-29T18:21:38.399Z,37.40
2022-11-29T18:24:07.872Z,40.40
2022-11-29T18:26:37.794Z,36.08
2022-11-29T18:29:05.991Z,34.78
2022-11-29T18:31:35.415Z,32.78
2022-11-29T18:34:06.717Z,34.78
2022-11-29T18:36:36.805Z,36.90
2022-11-29T18:39:06.924Z,36.38
2022-11-29T18:41:34.630Z,39.20
2022-11-29T18:44:06.799Z,35.95
2022-11-29T18:46:37.278Z,36.00
2022-11-29T18:49:06.534Z,34.85
2022-11-29T18:51:35.299Z,37.05
2022-11-29T18:54:03.800Z,40.90
2022-11-29T18:56:34.697Z,39.33
2022-11-29T18:59:05.921Z,36.40
2022-11-29T19:01:35.314Z,43.90
2022-11-29T19:04:03.324Z,39.08
2022-11-29T19:06:38.910Z,35.75
2022-11-29T19:09:08.543Z,36.47
2022-11-29T19:11:36.210Z,36.85
2022-11-29T19:14:10.952Z,38.17
2022-11-29T19:16:40.384Z,34.55
2022-11-29T19:19:08.346Z,39.33
2022-11-29T19:21:36.046Z,33.80
2022-11-29T19:24:07.540Z,34.83
2022-11-29T19:26:35.954Z,36.70
2022-11-29T19:29:05.054Z,34.10
2022-11-29T19:31:32.661Z,35.92
2022-11-29T19:34:00.311Z,34.83
2022-11-29T19:36:29.472Z,36.15
2022-11-29T19:38:57.925Z,33.58
2022-11-29T19:41:27.454Z,33.72
2022-11-29T19:43:57.201Z,36.25
2022-11-29T19:46:27.605Z,36.97
2022-11-29T19:48:56.546Z,35.47
2022-11-29T19:51:25.269Z,33.08
2022-11-29T19:53:54.014Z,38.72
2022-11-29T19:56:22.684Z,33.35
2022-11-29T19:58:50.349Z,36.42
2022-11-29T20:01:20.003Z,36.75
2022-11-29T20:03:49.318Z,37.45
2022-11-29T20:06:17.762Z,38.50
2022-11-29T20:08:46.153Z,40.17
2022-11-29T20:11:16.225Z,34.65
2022-11-29T20:13:46.220Z,38.13
2022-11-29T20:16:16.960Z,38.90
2022-11-29T20:18:50.639Z,35.85
2022-11-29T20:21:24.112Z,39.80
2022-11-29T20:23:56.183Z,39.22
2022-11-29T20:26:24.151Z,35.58
2022-11-29T20:28:52.094Z,36.58
2022-11-29T20:31:23.088Z,37.17
2022-11-29T20:33:53.357Z,38.35
2022-11-29T20:36:32.388Z,38.60
2022-11-29T20:39:11.679Z,38.78
2022-11-29T20:41:44.147Z,36.72
2022-11-29T20:44:18.050Z,36.60
2022-11-29T20:46:46.080Z,38.78
2022-11-29T20:49:14.141Z,36.90
2022-11-29T20:51:55.881Z,38.20
2022-11-29T20:54:23.569Z,38.13
2022-11-29T20:56:51.253Z,37.15
2022-11-29T20:59:18.937Z,37.13
2022-11-29T21:01:46.627Z,38.70
2022-11-29T21:04:17.695Z,35.63
2022-11-29T21:06:49.314Z,41.03
2022-11-29T21:09:16.943Z,40.30
2022-11-29T21:11:45.012Z,32.45
2022-11-29T21:14:13.289Z,35.97
2022-11-29T21:16:41.380Z,33.97
2022-11-29T21:19:20.210Z,44.55
2022-11-29T21:22:05.421Z,35.53
2022-11-29T21:24:45.979Z,35.75
2022-11-29T21:27:18.760Z,37.15
2022-11-29T21:29:46.883Z,37.38
2022-11-29T21:32:22.129Z,40.67
2022-11-29T21:34:49.912Z,40.00
2022-11-29T21:37:21.308Z,40.75
2022-11-29T21:39:51.462Z,37.78
2022-11-29T21:42:19.108Z,42.67
2022-11-29T21:44:47.074Z,39.63
2022-11-29T21:47:15.037Z,38.65
2022-11-29T21:49:42.750Z,39.05
2022-11-29T21:52:10.385Z,38.72
2022-11-29T21:54:40.034Z,39.75
2022-11-29T21:57:07.661Z,42.28
2022-11-29T21:59:35.464Z,39.17
2022-11-29T22:02:03.182Z,37.08
2022-11-29T22:04:30.966Z,39.20
2022-11-29T22:06:58.578Z,41.30
2022-11-29T22:09:26.275Z,44.00
2022-11-29T22:11:55.437Z,41.55
2022-11-29T22:14:23.739Z,44.83
2022-11-29T22:16:53.433Z,44.55
2022-11-29T22:19:23.010Z,45.63
2022-11-29T22:21:52.481Z,42.45
2022-11-29T22:24:22.181Z,41.85
2022-11-29T22:26:51.052Z,41.30
2022-11-29T22:29:20.877Z,45.08
2022-11-29T22:31:50.147Z,42.15
2022-11-29T22:34:17.887Z,39.28
2022-11-29T22:36:45.945Z,39.10
2022-11-29T22:39:14.138Z,39.45
2022-11-29T22:41:42.602Z,40.08
2022-11-29T22:44:10.468Z,42.33
2022-11-29T22:46:40.468Z,44.97
2022-11-29T22:49:08.171Z,44.72
2022-11-29T22:51:37.097Z,37.47
2022-11-29T22:54:06.832Z,37.50
2022-11-29T22:56:37.451Z,48.70
2022-11-29T22:59:05.676Z,37.22
2022-11-29T23:01:34.967Z,38.15
2022-11-29T23:04:07.039Z,38.03
2022-11-29T23:06:36.912Z,40.55
2022-11-29T23:09:07.506Z,43.03
2022-11-29T23:11:35.144Z,44.95
2022-11-29T23:14:02.931Z,34.55
2022-11-29T23:16:32.652Z,41.10
2022-11-29T23:19:01.107Z,47.03
2022-11-29T23:21:31.644Z,50.05
2022-11-29T23:24:00.750Z,39.10
2022-11-29T23:26:30.567Z,46.60
2022-11-29T23:28:59.592Z,45.95
2022-11-29T23:31:27.253Z,46.45
2022-11-29T23:33:55.335Z,48.15
2022-11-29T23:36:23.078Z,49.92
2022-11-29T23:38:52.542Z,47.30
2022-11-29T23:41:20.410Z,53.83
2022-11-29T23:43:48.196Z,52.03
2022-11-29T23:46:17.928Z,47.90
2022-11-29T23:48:45.853Z,43.63
2022-11-29T23:51:14.532Z,36.15
2022-11-29T23:53:42.821Z,44.13
2022-11-29T23:56:14.260Z,43.47
2022-11-29T23:58:42.777Z,49.35
